sensor_id;sensor_type;location;lat;lon;timestamp;pressure;altitude;pressure_sealevel;temperature;humidity
9784;BME280;4931;44.874;-1.092;2023-04-25T00:01:59;101316.41;;;11.44;100.00
9784;BME280;4931;44.874;-1.092;2023-04-25T00:04:25;101317.22;;;11.44;100.00
9784;BME280;4931;44.874;-1.092;2023-04-25T00:06:53;101318.03;;;11.45;100.00
9784;BME280;4931;44.874;-1.092;2023-04-25T00:09:18;101314.47;;;11.39;100.00
9784;BME280;4931;44.874;-1.092;2023-04-25T00:11:44;101322.19;;;11.37;100.00
9784;BME280;4931;44.874;-1.092;2023-04-25T00:14:09;101316.13;;;11.40;100.00
9784;BME280;4931;44.874;-1.092;2023-04-25T00:16:35;101315.28;;;11.40;100.00
9784;BME280;4931;44.874;-1.092;2023-04-25T00:19:01;101317.78;;;11.36;100.00
9784;BME280;4931;44.874;-1.092;2023-04-25T00:21:27;101316.94;;;11.41;100.00
9784;BME280;4931;44.874;-1.092;2023-04-25T00:23:53;101315.03;;;11.41;100.00
9784;BME280;4931;44.874;-1.092;2023-04-25T00:26:19;101315.28;;;11.40;100.00
9784;BME280;4931;44.874;-1.092;2023-04-25T00:28:46;101315.56;;;11.43;100.00
9784;BME280;4931;44.874;-1.092;2023-04-25T00:31:12;101308.44;;;11.48;100.00
9784;BME280;4931;44.874;-1.092;2023-04-25T00:33:38;101296.91;;;11.56;100.00
9784;BME280;4931;44.874;-1.092;2023-04-25T00:36:04;101296.06;;;11.45;100.00
9784;BME280;4931;44.874;-1.092;2023-04-25T00:38:30;101295.25;;;11.44;100.00
9784;BME280;4931;44.874;-1.092;2023-04-25T00:40:56;101296.34;;;11.38;100.00
9784;BME280;4931;44.874;-1.092;2023-04-25T00:43:25;101294.72;;;11.37;100.00
9784;BME280;4931;44.874;-1.092;2023-04-25T00:45:50;101295.78;;;11.31;100.00
9784;BME280;4931;44.874;-1.092;2023-04-25T00:48:17;101278.47;;;11.30;100.00
9784;BME280;4931;44.874;-1.092;2023-04-25T00:50:52;101273.53;;;11.27;100.00
9784;BME280;4931;44.874;-1.092;2023-04-25T00:53:19;101273.53;;;11.27;100.00
9784;BME280;4931;44.874;-1.092;2023-04-25T00:55:45;101280.13;;;11.32;100.00
9784;BME280;4931;44.874;-1.092;2023-04-25T00:58:11;101278.75;;;11.34;100.00
9784;BME280;4931;44.874;-1.092;2023-04-25T01:00:36;101270.22;;;11.36;100.00
9784;BME280;4931;44.874;-1.092;2023-04-25T01:03:03;101263.38;;;11.38;100.00
9784;BME280;4931;44.874;-1.092;2023-04-25T01:05:29;101260.91;;;11.42;100.00
9784;BME280;4931;44.874;-1.092;2023-04-25T01:07:55;101254.31;;;11.43;100.00
9784;BME280;4931;44.874;-1.092;2023-04-25T01:10:20;101260.09;;;11.41;100.00
9784;BME280;4931;44.874;-1.092;2023-04-25T01:12:46;101264.22;;;11.39;100.00
9784;BME280;4931;44.874;-1.092;2023-04-25T01:15:12;101268.34;;;11.46;100.00
9784;BME280;4931;44.874;-1.092;2023-04-25T01:17:38;101271.06;;;11.36;100.00
9784;BME280;4931;44.874;-1.092;2023-04-25T01:20:05;101271.06;;;11.26;100.00
9784;BME280;4931;44.874;-1.092;2023-04-25T01:22:32;101267.75;;;11.24;100.00
9784;BME280;4931;44.874;-1.092;2023-04-25T01:24:57;101271.59;;;11.18;100.00
9784;BME280;4931;44.874;-1.092;2023-04-25T01:27:23;101272.13;;;11.20;100.00
9784;BME280;4931;44.874;-1.092;2023-04-25T01:29:50;101266.63;;;11.20;100.00
9784;BME280;4931;44.874;-1.092;2023-04-25T01:32:16;101274.59;;;11.21;100.00
9784;BME280;4931;44.874;-1.092;2023-04-25T01:34:42;101268.84;;;11.28;100.00
9784;BME280;4931;44.874;-1.092;2023-04-25T01:37:08;101269.13;;;11.32;100.00
9784;BME280;4931;44.874;-1.092;2023-04-25T01:39:33;101267.22;;;11.32;100.00
9784;BME280;4931;44.874;-1.092;2023-04-25T01:41:59;101261.75;;;11.37;100.00
9784;BME280;4931;44.874;-1.092;2023-04-25T01:44:25;101267.25;;;11.37;100.00
9784;BME280;4931;44.874;-1.092;2023-04-25T01:46:51;101267.47;;;11.36;100.00
9784;BME280;4931;44.874;-1.092;2023-04-25T01:49:17;101263.13;;;11.35;100.00
9784;BME280;4931;44.874;-1.092;2023-04-25T01:51:42;101261.16;;;11.30;100.00
9784;BME280;4931;44.874;-1.092;2023-04-25T01:54:10;101253.50;;;11.27;100.00
9784;BME280;4931;44.874;-1.092;2023-04-25T01:56:37;101253.47;;;11.17;100.00
9784;BME280;4931;44.874;-1.092;2023-04-25T01:59:05;101256.19;;;11.06;100.00
9784;BME280;4931;44.874;-1.092;2023-04-25T02:01:31;101250.97;;;11.10;100.00
9784;BME280;4931;44.874;-1.092;2023-04-25T02:03:56;101238.63;;;11.12;100.00
9784;BME280;4931;44.874;-1.092;2023-04-25T02:06:22;101248.50;;;11.19;100.00
9784;BME280;4931;44.874;-1.092;2023-04-25T02:08:47;101249.06;;;11.16;100.00
9784;BME280;4931;44.874;-1.092;2023-04-25T02:11:13;101255.66;;;11.20;100.00
9784;BME280;4931;44.874;-1.092;2023-04-25T02:13:39;101253.47;;;11.11;100.00
9784;BME280;4931;44.874;-1.092;2023-04-25T02:16:04;101249.03;;;11.05;100.00
9784;BME280;4931;44.874;-1.092;2023-04-25T02:18:30;101244.41;;;11.06;100.00
9784;BME280;4931;44.874;-1.092;2023-04-25T02:20:58;101245.19;;;11.06;100.00
9784;BME280;4931;44.874;-1.092;2023-04-25T02:23:24;101252.38;;;11.12;100.00
9784;BME280;4931;44.874;-1.092;2023-04-25T02:25:50;101248.75;;;11.02;100.00
9784;BME280;4931;44.874;-1.092;2023-04-25T02:28:16;101260.28;;;10.99;100.00
9784;BME280;4931;44.874;-1.092;2023-04-25T02:30:41;101247.13;;;11.01;100.00
9784;BME280;4931;44.874;-1.092;2023-04-25T02:33:07;101250.13;;;11.04;100.00
9784;BME280;4931;44.874;-1.092;2023-04-25T02:35:32;101249.31;;;11.09;100.00
9784;BME280;4931;44.874;-1.092;2023-04-25T02:37:57;101253.16;;;11.08;100.00
9784;BME280;4931;44.874;-1.092;2023-04-25T02:40:23;101254.53;;;11.05;100.00
9784;BME280;4931;44.874;-1.092;2023-04-25T02:42:48;101246.84;;;11.02;100.00
9784;BME280;4931;44.874;-1.092;2023-04-25T02:45:14;101247.91;;;10.91;100.00
9784;BME280;4931;44.874;-1.092;2023-04-25T02:47:40;101251.22;;;10.93;100.00
9784;BME280;4931;44.874;-1.092;2023-04-25T02:50:05;101259.47;;;10.98;100.00
9784;BME280;4931;44.874;-1.092;2023-04-25T02:52:31;101261.09;;;10.94;100.00
9784;BME280;4931;44.874;-1.092;2023-04-25T02:54:57;101257.78;;;10.87;100.00
9784;BME280;4931;44.874;-1.092;2023-04-25T02:57:22;101266.56;;;10.89;100.00
9784;BME280;4931;44.874;-1.092;2023-04-25T02:59:48;101272.31;;;10.82;100.00
9784;BME280;4931;44.874;-1.092;2023-04-25T03:02:13;101269.28;;;10.78;100.00
9784;BME280;4931;44.874;-1.092;2023-04-25T03:04:39;101269.81;;;10.75;100.00
9784;BME280;4931;44.874;-1.092;2023-04-25T03:07:04;101265.44;;;10.74;100.00
9784;BME280;4931;44.874;-1.092;2023-04-25T03:09:30;101270.38;;;10.77;100.00
9784;BME280;4931;44.874;-1.092;2023-04-25T03:11:55;101274.75;;;10.73;100.00
9784;BME280;4931;44.874;-1.092;2023-04-25T03:14:21;101276.13;;;10.71;100.00
9784;BME280;4931;44.874;-1.092;2023-04-25T03:16:46;101271.38;;;10.61;100.00
9784;BME280;4931;44.874;-1.092;2023-04-25T03:19:12;101276.91;;;10.71;100.00
9784;BME280;4931;44.874;-1.092;2023-04-25T03:21:37;101271.41;;;10.66;100.00
9784;BME280;4931;44.874;-1.092;2023-04-25T03:24:04;101284.59;;;10.64;100.00
9784;BME280;4931;44.874;-1.092;2023-04-25T03:26:30;101274.63;;;10.48;100.00
9784;BME280;4931;44.874;-1.092;2023-04-25T03:28:55;101279.38;;;10.62;100.00
9784;BME280;4931;44.874;-1.092;2023-04-25T03:31:21;101279.94;;;10.70;100.00
9784;BME280;4931;44.874;-1.092;2023-04-25T03:33:47;101288.19;;;10.75;100.00
9784;BME280;4931;44.874;-1.092;2023-04-25T03:36:13;101286.28;;;10.80;100.00
9784;BME280;4931;44.874;-1.092;2023-04-25T03:38:38;101296.16;;;10.76;100.00
9784;BME280;4931;44.874;-1.092;2023-04-25T03:41:04;101287.41;;;10.79;100.00
9784;BME280;4931;44.874;-1.092;2023-04-25T03:43:29;101286.84;;;10.83;100.00
9784;BME280;4931;44.874;-1.092;2023-04-25T03:45:54;101286.31;;;10.86;100.00
9784;BME280;4931;44.874;-1.092;2023-04-25T03:48:20;101286.34;;;10.91;100.00
9784;BME280;4931;44.874;-1.092;2023-04-25T03:50:51;101289.06;;;10.91;100.00
9784;BME280;4931;44.874;-1.092;2023-04-25T03:53:17;101284.94;;;10.83;100.00
9784;BME280;4931;44.874;-1.092;2023-04-25T03:55:42;101281.91;;;10.85;100.00
9784;BME280;4931;44.874;-1.092;2023-04-25T03:58:08;101284.38;;;10.81;100.00
9784;BME280;4931;44.874;-1.092;2023-04-25T04:00:34;101287.66;;;10.83;100.00
9784;BME280;4931;44.874;-1.092;2023-04-25T04:03:00;101286.84;;;10.77;100.00
9784;BME280;4931;44.874;-1.092;2023-04-25T04:05:26;101275.25;;;10.70;100.00
9784;BME280;4931;44.874;-1.092;2023-04-25T04:07:53;101278.59;;;10.77;100.00
9784;BME280;4931;44.874;-1.092;2023-04-25T04:10:18;101282.97;;;10.73;100.00
9784;BME280;4931;44.874;-1.092;2023-04-25T04:12:43;101284.63;;;10.69;100.00
9784;BME280;4931;44.874;-1.092;2023-04-25T04:15:09;101285.44;;;10.70;100.00
9784;BME280;4931;44.874;-1.092;2023-04-25T04:17:35;101292.31;;;10.72;100.00
9784;BME280;4931;44.874;-1.092;2023-04-25T04:20:01;101288.97;;;10.70;100.00
9784;BME280;4931;44.874;-1.092;2023-04-25T04:22:26;101293.41;;;10.76;100.00
9784;BME280;4931;44.874;-1.092;2023-04-25T04:24:52;101291.22;;;10.73;100.00
9784;BME280;4931;44.874;-1.092;2023-04-25T04:27:18;101283.00;;;10.78;100.00
9784;BME280;4931;44.874;-1.092;2023-04-25T04:29:44;101285.22;;;10.87;100.00
9784;BME280;4931;44.874;-1.092;2023-04-25T04:32:11;101287.41;;;10.90;100.00
9784;BME280;4931;44.874;-1.092;2023-04-25T04:34:37;101283.59;;;10.96;100.00
9784;BME280;4931;44.874;-1.092;2023-04-25T04:37:05;101269.06;;;10.95;100.00
9784;BME280;4931;44.874;-1.092;2023-04-25T04:39:32;101275.91;;;10.93;100.00
9784;BME280;4931;44.874;-1.092;2023-04-25T04:41:58;101274.84;;;10.94;100.00
9784;BME280;4931;44.874;-1.092;2023-04-25T04:44:24;101272.53;;;10.75;100.00
9784;BME280;4931;44.874;-1.092;2023-04-25T04:46:50;101278.59;;;10.77;100.00
9784;BME280;4931;44.874;-1.092;2023-04-25T04:49:15;101280.81;;;10.80;100.00
9784;BME280;4931;44.874;-1.092;2023-04-25T04:51:41;101283.03;;;10.84;100.00
9784;BME280;4931;44.874;-1.092;2023-04-25T04:54:09;101283.03;;;10.89;100.00
9784;BME280;4931;44.874;-1.092;2023-04-25T04:56:35;101285.81;;;10.94;100.00
9784;BME280;4931;44.874;-1.092;2023-04-25T04:59:00;101299.00;;;11.02;100.00
9784;BME280;4931;44.874;-1.092;2023-04-25T05:01:28;101288.53;;;10.99;100.00
9784;BME280;4931;44.874;-1.092;2023-04-25T05:03:55;101290.75;;;10.97;100.00
9784;BME280;4931;44.874;-1.092;2023-04-25T05:06:25;101286.94;;;11.03;100.00
9784;BME280;4931;44.874;-1.092;2023-04-25T05:08:51;101294.59;;;11.01;100.00
9784;BME280;4931;44.874;-1.092;2023-04-25T05:11:18;101303.94;;;11.00;100.00
9784;BME280;4931;44.874;-1.092;2023-04-25T05:13:43;101295.69;;;11.00;100.00
9784;BME280;4931;44.874;-1.092;2023-04-25T05:16:09;101294.59;;;10.96;100.00
9784;BME280;4931;44.874;-1.092;2023-04-25T05:18:35;101291.53;;;10.87;100.00
9784;BME280;4931;44.874;-1.092;2023-04-25T05:21:01;101304.69;;;10.80;100.00
9784;BME280;4931;44.874;-1.092;2023-04-25T05:23:26;101303.31;;;10.77;100.00
9784;BME280;4931;44.874;-1.092;2023-04-25T05:25:53;101307.69;;;10.73;100.00
9784;BME280;4931;44.874;-1.092;2023-04-25T05:28:18;101301.06;;;10.69;100.00
9784;BME280;4931;44.874;-1.092;2023-04-25T05:30:44;101314.81;;;10.74;100.00
9784;BME280;4931;44.874;-1.092;2023-04-25T05:33:09;101305.47;;;10.75;100.00
9784;BME280;4931;44.874;-1.092;2023-04-25T05:35:35;101310.41;;;10.68;100.00
9784;BME280;4931;44.874;-1.092;2023-04-25T05:38:00;101314.81;;;10.69;100.00
9784;BME280;4931;44.874;-1.092;2023-04-25T05:40:26;101316.44;;;10.75;100.00
9784;BME280;4931;44.874;-1.092;2023-04-25T05:42:51;101309.09;;;10.81;100.00
9784;BME280;4931;44.874;-1.092;2023-04-25T05:45:16;101301.94;;;10.80;100.00
9784;BME280;4931;44.874;-1.092;2023-04-25T05:47:42;101307.16;;;10.82;100.00
9784;BME280;4931;44.874;-1.092;2023-04-25T05:50:08;101308.78;;;10.77;100.00
9784;BME280;4931;44.874;-1.092;2023-04-25T05:52:33;101315.38;;;10.82;100.00
9784;BME280;4931;44.874;-1.092;2023-04-25T05:54:59;101312.09;;;10.85;100.00
9784;BME280;4931;44.874;-1.092;2023-04-25T05:57:26;101309.34;;;10.85;100.00
9784;BME280;4931;44.874;-1.092;2023-04-25T05:59:52;101314.88;;;10.90;100.00
9784;BME280;4931;44.874;-1.092;2023-04-25T06:02:21;101318.97;;;10.87;100.00
9784;BME280;4931;44.874;-1.092;2023-04-25T06:04:49;101317.88;;;10.83;100.00
9784;BME280;4931;44.874;-1.092;2023-04-25T06:07:15;101327.47;;;10.86;100.00
9784;BME280;4931;44.874;-1.092;2023-04-25T06:09:40;101332.16;;;10.85;100.00
9784;BME280;4931;44.874;-1.092;2023-04-25T06:12:06;101340.94;;;10.87;100.00
9784;BME280;4931;44.874;-1.092;2023-04-25T06:14:32;101345.06;;;10.90;100.00
9784;BME280;4931;44.874;-1.092;2023-04-25T06:16:59;101347.00;;;10.89;100.00
9784;BME280;4931;44.874;-1.092;2023-04-25T06:19:25;101349.44;;;10.86;100.00
9784;BME280;4931;44.874;-1.092;2023-04-25T06:21:50;101349.75;;;10.94;100.00
9784;BME280;4931;44.874;-1.092;2023-04-25T06:24:16;101353.94;;;11.07;100.00
9784;BME280;4931;44.874;-1.092;2023-04-25T06:26:41;101363.81;;;11.13;100.00
9784;BME280;4931;44.874;-1.092;2023-04-25T06:29:06;101361.34;;;11.12;100.00
9784;BME280;4931;44.874;-1.092;2023-04-25T06:31:32;101370.19;;;11.19;100.00
9784;BME280;4931;44.874;-1.092;2023-04-25T06:33:59;101369.34;;;11.24;100.00
9784;BME280;4931;44.874;-1.092;2023-04-25T06:36:24;101373.47;;;11.21;100.00
9784;BME280;4931;44.874;-1.092;2023-04-25T06:38:51;101379.81;;;11.22;100.00
9784;BME280;4931;44.874;-1.092;2023-04-25T06:41:20;101378.41;;;11.14;100.00
9784;BME280;4931;44.874;-1.092;2023-04-25T06:43:46;101389.13;;;11.21;100.00
9784;BME280;4931;44.874;-1.092;2023-04-25T06:46:11;101388.31;;;11.30;100.00
9784;BME280;4931;44.874;-1.092;2023-04-25T06:48:37;101391.38;;;11.34;100.00
9784;BME280;4931;44.874;-1.092;2023-04-25T06:51:03;101389.47;;;11.35;100.00
9784;BME280;4931;44.874;-1.092;2023-04-25T06:53:28;101393.31;;;11.34;100.00
9784;BME280;4931;44.874;-1.092;2023-04-25T06:55:54;101397.69;;;11.35;100.00
9784;BME280;4931;44.874;-1.092;2023-04-25T06:58:20;101393.72;;;12.09;100.00
9784;BME280;4931;44.874;-1.092;2023-04-25T07:00:45;101391.72;;;11.74;100.00
9784;BME280;4931;44.874;-1.092;2023-04-25T07:03:11;101376.84;;;11.54;100.00
9784;BME280;4931;44.874;-1.092;2023-04-25T07:05:37;101380.97;;;11.46;100.00
9784;BME280;4931;44.874;-1.092;2023-04-25T07:08:02;101378.22;;;11.41;100.00
9784;BME280;4931;44.874;-1.092;2023-04-25T07:10:28;101378.75;;;11.38;100.00
9784;BME280;4931;44.874;-1.092;2023-04-25T07:12:54;101388.09;;;11.42;100.00
9784;BME280;4931;44.874;-1.092;2023-04-25T07:15:19;101385.91;;;11.50;100.00
9784;BME280;4931;44.874;-1.092;2023-04-25T07:17:44;101387.59;;;11.56;100.00
9784;BME280;4931;44.874;-1.092;2023-04-25T07:20:10;101391.97;;;11.57;100.00
9784;BME280;4931;44.874;-1.092;2023-04-25T07:22:36;101386.47;;;11.57;100.00
9784;BME280;4931;44.874;-1.092;2023-04-25T07:25:01;101398.59;;;11.61;100.00
9784;BME280;4931;44.874;-1.092;2023-04-25T07:27:29;101398.00;;;11.49;100.00
9784;BME280;4931;44.874;-1.092;2023-04-25T07:29:55;101393.34;;;11.44;100.00
9784;BME280;4931;44.874;-1.092;2023-04-25T07:32:20;101404.59;;;11.48;100.00
9784;BME280;4931;44.874;-1.092;2023-04-25T07:34:46;101403.47;;;11.43;100.00
9784;BME280;4931;44.874;-1.092;2023-04-25T07:37:11;101405.72;;;11.57;100.00
9784;BME280;4931;44.874;-1.092;2023-04-25T07:39:37;101389.25;;;11.52;100.00
9784;BME280;4931;44.874;-1.092;2023-04-25T07:42:03;101388.66;;;11.44;100.00
9784;BME280;4931;44.874;-1.092;2023-04-25T07:44:29;101393.63;;;11.58;100.00
9784;BME280;4931;44.874;-1.092;2023-04-25T07:46:55;101385.97;;;11.70;100.00
9784;BME280;4931;44.874;-1.092;2023-04-25T07:49:21;101387.06;;;11.69;100.00
9784;BME280;4931;44.874;-1.092;2023-04-25T07:51:47;101396.97;;;11.75;100.00
9784;BME280;4931;44.874;-1.092;2023-04-25T07:54:14;101395.06;;;11.86;100.00
9784;BME280;4931;44.874;-1.092;2023-04-25T07:56:39;101395.66;;;12.45;100.00
9784;BME280;4931;44.874;-1.092;2023-04-25T07:59:05;101397.31;;;12.15;100.00
9784;BME280;4931;44.874;-1.092;2023-04-25T08:01:31;101402.47;;;11.91;100.00
9784;BME280;4931;44.874;-1.092;2023-04-25T08:03:56;101398.97;;;11.95;100.00
9784;BME280;4931;44.874;-1.092;2023-04-25T08:06:22;101399.25;;;11.99;100.00
9784;BME280;4931;44.874;-1.092;2023-04-25T08:08:47;101406.03;;;11.76;100.00
9784;BME280;4931;44.874;-1.092;2023-04-25T08:11:13;101398.38;;;11.78;100.00
9784;BME280;4931;44.874;-1.092;2023-04-25T08:13:38;101401.94;;;11.78;100.00
9784;BME280;4931;44.874;-1.092;2023-04-25T08:16:04;101398.91;;;11.80;100.00
9784;BME280;4931;44.874;-1.092;2023-04-25T08:18:29;101391.50;;;11.81;100.00
9784;BME280;4931;44.874;-1.092;2023-04-25T08:20:56;101399.72;;;11.75;100.00
9784;BME280;4931;44.874;-1.092;2023-04-25T08:23:21;101389.78;;;11.59;100.00
9784;BME280;4931;44.874;-1.092;2023-04-25T08:25:47;101396.41;;;11.63;100.00
9784;BME280;4931;44.874;-1.092;2023-04-25T08:28:12;101406.59;;;11.83;100.00
9784;BME280;4931;44.874;-1.092;2023-04-25T08:30:38;101412.09;;;11.88;100.00
9784;BME280;4931;44.874;-1.092;2023-04-25T08:33:03;101416.28;;;12.01;100.00
9784;BME280;4931;44.874;-1.092;2023-04-25T08:35:29;101414.88;;;12.60;100.00
9784;BME280;4931;44.874;-1.092;2023-04-25T08:37:54;101418.47;;;12.40;100.00
9784;BME280;4931;44.874;-1.092;2023-04-25T08:40:22;101413.81;;;12.20;100.00
9784;BME280;4931;44.874;-1.092;2023-04-25T08:42:51;101414.63;;;12.16;100.00
9784;BME280;4931;44.874;-1.092;2023-04-25T08:45:18;101413.53;;;12.22;100.00
9784;BME280;4931;44.874;-1.092;2023-04-25T08:47:45;101420.72;;;12.33;100.00
9784;BME280;4931;44.874;-1.092;2023-04-25T08:50:11;101420.44;;;12.29;100.00
9784;BME280;4931;44.874;-1.092;2023-04-25T08:52:41;101410.50;;;12.34;100.00
9784;BME280;4931;44.874;-1.092;2023-04-25T08:55:09;101419.03;;;12.27;100.00
9784;BME280;4931;44.874;-1.092;2023-04-25T08:57:34;101417.09;;;12.17;100.00
9784;BME280;4931;44.874;-1.092;2023-04-25T09:00:01;101421.78;;;12.17;100.00
9784;BME280;4931;44.874;-1.092;2023-04-25T09:02:27;101417.38;;;12.21;100.00
9784;BME280;4931;44.874;-1.092;2023-04-25T09:04:53;101426.19;;;12.12;100.00
9784;BME280;4931;44.874;-1.092;2023-04-25T09:07:19;101422.09;;;12.31;100.00
9784;BME280;4931;44.874;-1.092;2023-04-25T09:09:46;101417.09;;;12.38;100.00
9784;BME280;4931;44.874;-1.092;2023-04-25T09:12:12;101417.38;;;12.62;100.00
9784;BME280;4931;44.874;-1.092;2023-04-25T09:14:37;101408.53;;;12.81;100.00
9784;BME280;4931;44.874;-1.092;2023-04-25T09:17:04;101412.44;;;12.33;100.00
9784;BME280;4931;44.874;-1.092;2023-04-25T09:19:34;101420.69;;;12.23;100.00
9784;BME280;4931;44.874;-1.092;2023-04-25T09:22:02;101421.25;;;12.40;100.00
9784;BME280;4931;44.874;-1.092;2023-04-25T09:24:38;101423.41;;;12.54;100.00
9784;BME280;4931;44.874;-1.092;2023-04-25T09:27:08;101409.66;;;12.43;100.00
9784;BME280;4931;44.874;-1.092;2023-04-25T09:29:36;101414.06;;;12.50;100.00
9784;BME280;4931;44.874;-1.092;2023-04-25T09:32:17;101410.78;;;12.48;100.00
9784;BME280;4931;44.874;-1.092;2023-04-25T09:34:45;101416.28;;;12.42;100.00
9784;BME280;4931;44.874;-1.092;2023-04-25T09:37:26;101423.47;;;12.33;100.00
9784;BME280;4931;44.874;-1.092;2023-04-25T09:39:59;101424.28;;;12.34;100.00
9784;BME280;4931;44.874;-1.092;2023-04-25T09:42:26;101433.34;;;12.50;100.00
9784;BME280;4931;44.874;-1.092;2023-04-25T09:44:54;101432.78;;;12.58;100.00
9784;BME280;4931;44.874;-1.092;2023-04-25T09:47:23;101444.34;;;12.55;100.00
9784;BME280;4931;44.874;-1.092;2023-04-25T09:49:49;101448.75;;;12.51;100.00
9784;BME280;4931;44.874;-1.092;2023-04-25T09:52:17;101448.19;;;12.54;100.00
9784;BME280;4931;44.874;-1.092;2023-04-25T09:54:47;101443.25;;;12.51;100.00
9784;BME280;4931;44.874;-1.092;2023-04-25T09:57:15;101444.63;;;12.48;100.00
9784;BME280;4931;44.874;-1.092;2023-04-25T10:02:12;101445.44;;;12.59;100.00
9784;BME280;4931;44.874;-1.092;2023-04-25T10:04:38;101448.75;;;12.45;100.00
9784;BME280;4931;44.874;-1.092;2023-04-25T10:07:08;101444.34;;;12.39;100.00
9784;BME280;4931;44.874;-1.092;2023-04-25T10:09:37;101438.31;;;12.37;100.00
9784;BME280;4931;44.874;-1.092;2023-04-25T10:12:03;101444.91;;;12.41;100.00
9784;BME280;4931;44.874;-1.092;2023-04-25T10:14:32;101437.75;;;12.61;100.00
9784;BME280;4931;44.874;-1.092;2023-04-25T10:17:00;101431.66;;;12.69;100.00
9784;BME280;4931;44.874;-1.092;2023-04-25T10:19:27;101439.59;;;12.97;100.00
9784;BME280;4931;44.874;-1.092;2023-04-25T10:22:04;101429.72;;;12.80;100.00
9784;BME280;4931;44.874;-1.092;2023-04-25T10:24:31;101433.25;;;12.96;100.00
9784;BME280;4931;44.874;-1.092;2023-04-25T10:26:57;101410.13;;;12.92;100.00
9784;BME280;4931;44.874;-1.092;2023-04-25T10:29:24;101428.25;;;13.14;100.00
9784;BME280;4931;44.874;-1.092;2023-04-25T10:31:50;101433.47;;;13.20;100.00
9784;BME280;4931;44.874;-1.092;2023-04-25T10:34:17;101430.44;;;13.11;100.00
9784;BME280;4931;44.874;-1.092;2023-04-25T10:36:43;101439.81;;;13.10;100.00
9784;BME280;4931;44.874;-1.092;2023-04-25T10:39:22;101453.06;;;12.98;100.00
9784;BME280;4931;44.874;-1.092;2023-04-25T10:41:58;101442.38;;;12.76;100.00
9784;BME280;4931;44.874;-1.092;2023-04-25T10:44:27;101447.06;;;12.91;100.00
9784;BME280;4931;44.874;-1.092;2023-04-25T10:46:58;101446.47;;;12.99;100.00
9784;BME280;4931;44.874;-1.092;2023-04-25T10:49:34;101446.16;;;13.11;100.00
9784;BME280;4931;44.874;-1.092;2023-04-25T10:54:53;101434.53;;;13.40;100.00
9784;BME280;4931;44.874;-1.092;2023-04-25T11:00:21;101429.00;;;13.35;100.00
9784;BME280;4931;44.874;-1.092;2023-04-25T11:02:57;101416.66;;;13.17;100.00
9784;BME280;4931;44.874;-1.092;2023-04-25T11:05:33;101418.31;;;13.18;100.00
9784;BME280;4931;44.874;-1.092;2023-04-25T11:07:59;101424.88;;;13.32;100.00
9784;BME280;4931;44.874;-1.092;2023-04-25T11:10:32;101422.16;;;13.17;100.00
9784;BME280;4931;44.874;-1.092;2023-04-25T11:12:58;101422.69;;;13.29;100.00
9784;BME280;4931;44.874;-1.092;2023-04-25T11:15:25;101425.53;;;12.98;100.00
9784;BME280;4931;44.874;-1.092;2023-04-25T11:17:52;101418.00;;;13.24;100.00
9784;BME280;4931;44.874;-1.092;2023-04-25T11:20:17;101425.41;;;13.39;100.00
9784;BME280;4931;44.874;-1.092;2023-04-25T11:22:47;101424.91;;;13.82;100.00
9784;BME280;4931;44.874;-1.092;2023-04-25T11:25:14;101423.75;;;13.93;100.00
9784;BME280;4931;44.874;-1.092;2023-04-25T11:27:53;101434.94;;;14.07;100.00
9784;BME280;4931;44.874;-1.092;2023-04-25T11:30:20;101432.53;;;13.95;100.00
9784;BME280;4931;44.874;-1.092;2023-04-25T11:32:46;101430.22;;;14.13;100.00
9784;BME280;4931;44.874;-1.092;2023-04-25T11:35:12;101434.53;;;14.24;100.00
9784;BME280;4931;44.874;-1.092;2023-04-25T11:37:42;101434.16;;;14.36;100.00
9784;BME280;4931;44.874;-1.092;2023-04-25T11:40:08;101437.97;;;14.40;100.00
9784;BME280;4931;44.874;-1.092;2023-04-25T11:42:38;101432.72;;;14.44;100.00
9784;BME280;4931;44.874;-1.092;2023-04-25T11:45:05;101414.88;;;14.31;100.00
9784;BME280;4931;44.874;-1.092;2023-04-25T11:47:33;101411.72;;;14.14;100.00
9784;BME280;4931;44.874;-1.092;2023-04-25T11:50:02;101407.00;;;14.49;100.00
9784;BME280;4931;44.874;-1.092;2023-04-25T11:52:42;101405.75;;;14.65;100.00
9784;BME280;4931;44.874;-1.092;2023-04-25T11:55:10;101400.19;;;14.70;100.00
9784;BME280;4931;44.874;-1.092;2023-04-25T11:57:38;101394.22;;;14.58;100.00
9784;BME280;4931;44.874;-1.092;2023-04-25T12:02:46;101385.88;;;14.34;100.00
9784;BME280;4931;44.874;-1.092;2023-04-25T12:05:13;101372.94;;;14.34;100.00
9784;BME280;4931;44.874;-1.092;2023-04-25T12:07:40;101387.78;;;14.38;100.00
9784;BME280;4931;44.874;-1.092;2023-04-25T12:10:11;101385.59;;;14.35;100.00
9784;BME280;4931;44.874;-1.092;2023-04-25T12:12:37;101379.28;;;14.59;100.00
9784;BME280;4931;44.874;-1.092;2023-04-25T12:15:17;101380.41;;;14.58;100.00
9784;BME280;4931;44.874;-1.092;2023-04-25T12:17:46;101373.19;;;14.62;100.00
9784;BME280;4931;44.874;-1.092;2023-04-25T12:20:17;101381.97;;;14.69;100.00
9784;BME280;4931;44.874;-1.092;2023-04-25T12:22:45;101385.78;;;14.73;100.00
9784;BME280;4931;44.874;-1.092;2023-04-25T12:25:41;101384.16;;;14.72;100.00
9784;BME280;4931;44.874;-1.092;2023-04-25T12:28:13;101383.13;;;14.68;100.00
9784;BME280;4931;44.874;-1.092;2023-04-25T12:31:05;101382.03;;;14.64;100.00
9784;BME280;4931;44.874;-1.092;2023-04-25T12:33:36;101377.44;;;14.78;100.00
9784;BME280;4931;44.874;-1.092;2023-04-25T12:36:04;101388.50;;;14.78;100.00
9784;BME280;4931;44.874;-1.092;2023-04-25T12:38:39;101388.09;;;14.66;100.00
9784;BME280;4931;44.874;-1.092;2023-04-25T12:41:05;101375.75;;;14.53;100.00
9784;BME280;4931;44.874;-1.092;2023-04-25T12:43:31;101381.09;;;14.74;100.00
9784;BME280;4931;44.874;-1.092;2023-04-25T12:45:57;101390.25;;;14.69;100.00
9784;BME280;4931;44.874;-1.092;2023-04-25T12:48:23;101369.19;;;14.49;100.00
9784;BME280;4931;44.874;-1.092;2023-04-25T12:50:50;101393.09;;;14.59;100.00
9784;BME280;4931;44.874;-1.092;2023-04-25T12:53:20;101399.91;;;14.72;100.00
9784;BME280;4931;44.874;-1.092;2023-04-25T12:55:46;101391.91;;;14.70;100.00
9784;BME280;4931;44.874;-1.092;2023-04-25T12:58:16;101394.16;;;14.68;100.00
9784;BME280;4931;44.874;-1.092;2023-04-25T13:00:43;101388.81;;;14.48;100.00